Time;durP1;ratioP1;P1;durP2;ratioP2;P2;SDS_P1;SDS_P2;PMS_P1;PMS_P2;Temp;Humidity;BMP_temperature;BMP_pressure;BME280_temperature;BME280_humidity;BME280_pressure;Samples;Min_cycle;Max_cycle;Signal;HPM_P1;HPM_P2
2021/10/29 00:00:20;;;;;;;;;;;;;;;18.54;57.88;95635.16;1048919;28;1126;-57
2021/10/29 00:00:51;;;;;;;;;;;;;;;18.53;57.87;95630.16;1048719;28;1036;-56
2021/10/29 00:01:22;;;;;;;;;;;;;;;18.54;57.86;95634.38;1048638;28;1304;-58
2021/10/29 00:01:52;;;;;;;;;;;;;;;18.54;57.94;95629.13;1048698;28;1052;-55
2021/10/29 00:02:23;;;;;;;;;;;;;;;18.54;57.83;95626.50;1048096;28;1506;-58
2021/10/29 00:02:53;;;;;;;;;;;;;;;18.53;57.92;95630.94;1040502;28;1733;-58
2021/10/29 00:03:24;;;;;;;;;;;;;;;18.52;57.92;95626.75;1043009;28;1933;-57
2021/10/29 00:03:54;;;;;;;;;;;;;;;18.53;58.02;95619.66;1044460;28;1032;-58
2021/10/29 00:04:25;;;;;;;;;;;;;;;18.54;57.62;95626.50;1046540;28;1466;-54
2021/10/29 00:04:56;;;;;;;;;;;;;;;18.53;57.81;95622.28;1048645;28;1911;-58
2021/10/29 00:05:26;;;;;;;;;;;;;;;18.52;57.66;95624.13;1047477;28;1131;-58
2021/10/29 00:05:56;;;;;;;;;;;;;;;18.52;57.97;95623.34;1048786;28;1040;-58
2021/10/29 00:06:28;;;;;;;;;;;;;;;18.52;57.61;95618.88;1048434;28;1150;-58
2021/10/29 00:06:59;;;;;;;;;;;;;;;18.52;57.79;95623.34;1048379;28;1044;-57
2021/10/29 00:07:29;;;;;;;;;;;;;;;18.52;57.90;95620.72;1048112;28;1217;-57
2021/10/29 00:08:00;;;;;;;;;;;;;;;18.52;57.43;95623.34;1047563;28;1946;-53
2021/10/29 00:08:31;;;;;;;;;;;;;;;18.52;57.82;95631.22;1048564;28;1261;-55
2021/10/29 00:09:02;;;;;;;;;;;;;;;18.51;57.75;95630.41;1048605;28;1061;-56
2021/10/29 00:09:32;;;;;;;;;;;;;;;18.50;57.78;95631.50;1048145;28;1178;-57
2021/10/29 00:10:04;;;;;;;;;;;;;;;18.50;57.82;95630.69;1048442;28;1028;-56
2021/10/29 00:10:34;;;;;;;;;;;;;;;18.51;57.61;95634.88;1048996;28;1253;-57
2021/10/29 00:11:05;;;;;;;;;;;;;;;18.50;57.41;95641.19;1048832;28;1112;-55
2021/10/29 00:11:35;;;;;;;;;;;;;;;18.49;57.53;95635.16;1044255;28;1237;-56
2021/10/29 00:12:13;;;;;;;;;;;;;;;18.50;57.49;95638.56;1048208;28;972;-54
2021/10/29 00:12:45;;;;;;;;;;;;;;;18.49;57.53;95636.97;1047352;28;1995;-56
2021/10/29 00:13:16;;;;;;;;;;;;;;;18.51;57.48;95634.88;1048306;28;1952;-57
2021/10/29 00:13:46;;;;;;;;;;;;;;;18.49;57.37;95631.72;1048507;28;1073;-57
2021/10/29 00:14:17;;;;;;;;;;;;;;;18.49;57.21;95627.28;1046591;28;1588;-55
2021/10/29 00:14:47;;;;;;;;;;;;;;;18.50;57.35;95638.56;1048595;28;1141;-56
2021/10/29 00:15:18;;;;;;;;;;;;;;;18.49;57.47;95623.84;1046861;28;1935;-56
2021/10/29 00:15:48;;;;;;;;;;;;;;;18.49;57.50;95626.47;1045415;28;1081;-57
2021/10/29 00:16:18;;;;;;;;;;;;;;;18.49;57.24;95634.34;1048500;28;1185;-57
2021/10/29 00:16:48;;;;;;;;;;;;;;;18.50;57.52;95630.69;1048413;28;1047;-57
2021/10/29 00:17:19;;;;;;;;;;;;;;;18.48;57.70;95628.34;1048429;28;1139;-57
2021/10/29 00:17:50;;;;;;;;;;;;;;;18.49;57.45;95629.09;1046140;28;1867;-56
2021/10/29 00:18:20;;;;;;;;;;;;;;;18.49;57.61;95631.72;1048372;28;1089;-55
2021/10/29 00:18:51;;;;;;;;;;;;;;;18.49;57.18;95629.91;1048373;28;1040;-56
2021/10/29 00:19:22;;;;;;;;;;;;;;;18.49;57.13;95636.97;1048441;28;1166;-56
2021/10/29 00:19:52;;;;;;;;;;;;;;;18.49;57.15;95634.34;1048039;28;1922;-57
2021/10/29 00:20:22;;;;;;;;;;;;;;;18.48;57.15;95633.59;1048734;28;1059;-57
2021/10/29 00:20:53;;;;;;;;;;;;;;;18.48;57.00;95632.78;1048968;28;1065;-55
2021/10/29 00:21:23;;;;;;;;;;;;;;;18.49;57.36;95629.09;1048190;28;1392;-56
2021/10/29 00:21:53;;;;;;;;;;;;;;;18.48;57.14;95635.41;1048023;28;1086;-56
2021/10/29 00:22:24;;;;;;;;;;;;;;;18.48;57.31;95635.41;1044065;28;1170;-56
2021/10/29 00:22:54;;;;;;;;;;;;;;;18.48;57.39;95632.78;1042438;28;2085;-56
2021/10/29 00:23:27;;;;;;;;;;;;;;;18.47;57.09;95628.56;1043593;28;1272;-55
2021/10/29 00:23:57;;;;;;;;;;;;;;;18.48;56.99;95632.78;1044377;28;982;-55
2021/10/29 00:24:27;;;;;;;;;;;;;;;18.48;57.17;95635.41;1047836;28;1204;-57
2021/10/29 00:24:58;;;;;;;;;;;;;;;18.47;57.08;95634.63;1048079;28;1007;-56
2021/10/29 00:25:28;;;;;;;;;;;;;;;18.47;57.08;95632.00;1051694;28;1146;-56
2021/10/29 00:25:59;;;;;;;;;;;;;;;18.47;57.05;95637.25;1052470;28;1067;-56
2021/10/29 00:26:29;;;;;;;;;;;;;;;18.47;57.25;95628.56;1051168;28;1153;-57
2021/10/29 00:26:59;;;;;;;;;;;;;;;18.47;57.18;95625.94;1048548;28;1146;-56
2021/10/29 00:27:30;;;;;;;;;;;;;;;18.47;57.26;95628.56;1048310;28;1166;-55
2021/10/29 00:28:00;;;;;;;;;;;;;;;18.47;57.31;95631.19;1041975;28;1902;-56
2021/10/29 00:28:30;;;;;;;;;;;;;;;18.46;56.99;95634.91;1043653;28;1104;-57
2021/10/29 00:29:01;;;;;;;;;;;;;;;18.46;57.09;95625.19;1044398;28;1045;-54
2021/10/29 00:29:31;;;;;;;;;;;;;;;18.47;57.09;95631.19;1048208;28;1098;-56
2021/10/29 00:30:02;;;;;;;;;;;;;;;18.47;57.18;95628.56;1048688;28;1112;-57
2021/10/29 00:30:32;;;;;;;;;;;;;;;18.47;57.60;95623.34;1048243;28;1466;-57
2021/10/29 00:31:03;;;;;;;;;;;;;;;18.45;57.50;95620.97;1048514;28;1115;-56
2021/10/29 00:31:33;;;;;;;;;;;;;;;18.47;57.01;95628.56;1046525;28;1410;-57
2021/10/29 00:32:04;;;;;;;;;;;;;;;18.45;57.22;95626.22;1048027;28;1339;-55
2021/10/29 00:32:34;;;;;;;;;;;;;;;18.46;56.93;95632.28;1048019;28;1117;-54
2021/10/29 00:33:05;;;;;;;;;;;;;;;18.45;56.76;95622.81;1045479;28;1848;-57
2021/10/29 00:33:35;;;;;;;;;;;;;;;18.45;57.17;95628.84;1040957;28;1879;-57
2021/10/29 00:34:05;;;;;;;;;;;;;;;18.46;56.96;95630.44;1047634;28;953;-58
2021/10/29 00:34:36;;;;;;;;;;;;;;;18.45;57.04;95625.44;1046411;28;1741;-57
2021/10/29 00:35:06;;;;;;;;;;;;;;;18.44;56.95;95629.13;1048170;28;1053;-57
2021/10/29 00:35:37;;;;;;;;;;;;;;;18.44;56.86;95626.50;1048335;28;807;-55
2021/10/29 00:36:07;;;;;;;;;;;;;;;18.44;56.78;95631.75;1048616;28;1040;-53
2021/10/29 00:36:37;;;;;;;;;;;;;;;18.44;56.73;95623.88;1046117;28;1549;-55
2021/10/29 00:37:08;;;;;;;;;;;;;;;18.44;57.15;95622.00;1048569;28;1109;-57
2021/10/29 00:37:39;;;;;;;;;;;;;;;18.44;57.25;95626.50;1048497;28;1040;-56
2021/10/29 00:38:10;;;;;;;;;;;;;;;18.44;57.19;95626.50;1047754;28;1891;-54
2021/10/29 00:38:40;;;;;;;;;;;;;;;18.44;57.25;95621.25;1046742;28;1433;-55
2021/10/29 00:39:11;;;;;;;;;;;;;;;18.43;57.32;95617.00;1048806;28;1114;-57
2021/10/29 00:39:41;;;;;;;;;;;;;;;18.44;56.85;95627.25;1048585;28;1094;-56
2021/10/29 00:40:12;;;;;;;;;;;;;;;18.43;56.73;95623.06;1048475;28;1901;-57
2021/10/29 00:40:42;;;;;;;;;;;;;;;18.44;56.95;95618.63;1047562;28;1891;-55
2021/10/29 00:41:13;;;;;;;;;;;;;;;18.43;56.81;95622.25;1048778;28;1154;-56
2021/10/29 00:41:43;;;;;;;;;;;;;;;18.44;57.01;95618.63;1048035;28;1830;-54
2021/10/29 00:42:13;;;;;;;;;;;;;;;18.43;56.92;95623.06;1048008;28;1189;-55
2021/10/29 00:42:44;;;;;;;;;;;;;;;18.44;56.87;95623.88;1047983;28;1430;-55
2021/10/29 00:43:14;;;;;;;;;;;;;;;18.43;56.88;95617.81;1048367;28;1134;-55
2021/10/29 00:43:44;;;;;;;;;;;;;;;18.43;56.82;95617.81;1046188;28;1919;-57
2021/10/29 00:44:20;;;;;;;;;;;;;;;18.43;56.75;95619.63;1046735;28;1855;-56
2021/10/29 00:44:50;;;;;;;;;;;;;;;18.43;56.95;95617.00;1045673;28;1566;-56
2021/10/29 00:45:21;;;;;;;;;;;;;;;18.43;56.90;95612.56;1048501;28;1154;-55
2021/10/29 00:45:51;;;;;;;;;;;;;;;18.43;56.79;95614.38;1048265;28;1138;-56
2021/10/29 00:46:23;;;;;;;;;;;;;;;18.43;56.84;95614.38;1048051;28;1044;-55
2021/10/29 00:46:53;;;;;;;;;;;;;;;18.42;56.79;95618.06;1048864;28;1060;-56
2021/10/29 00:47:24;;;;;;;;;;;;;;;18.43;56.75;95619.63;1048544;28;1130;-55
2021/10/29 00:47:54;;;;;;;;;;;;;;;18.43;56.82;95619.63;1047308;28;1019;-54
2021/10/29 00:48:25;;;;;;;;;;;;;;;18.42;56.80;95618.84;1048270;28;1918;-57
2021/10/29 00:48:55;;;;;;;;;;;;;;;18.43;56.94;95622.25;1047748;28;1402;-57
2021/10/29 00:49:26;;;;;;;;;;;;;;;18.42;56.74;95618.06;1048725;28;1083;-57
2021/10/29 00:49:56;;;;;;;;;;;;;;;18.42;56.71;95612.81;1048629;28;1061;-55
2021/10/29 00:50:27;;;;;;;;;;;;;;;18.41;56.52;95611.22;1048586;28;1169;-56
2021/10/29 00:50:57;;;;;;;;;;;;;;;18.43;56.71;95619.63;1048578;28;1216;-57
2021/10/29 00:51:27;;;;;;;;;;;;;;;18.41;56.41;95616.47;1048659;28;1224;-56
2021/10/29 00:51:58;;;;;;;;;;;;;;;18.41;56.60;95617.28;1048720;28;1017;-54
2021/10/29 00:52:28;;;;;;;;;;;;;;;18.41;56.72;95616.47;1047066;28;1618;-55
2021/10/29 00:52:58;;;;;;;;;;;;;;;18.41;56.39;95619.09;1047049;28;1013;-55
2021/10/29 00:53:29;;;;;;;;;;;;;;;18.40;56.57;95620.94;1047425;28;1871;-54
2021/10/29 00:53:59;;;;;;;;;;;;;;;18.41;56.74;95617.28;1039442;28;1672;-57
2021/10/29 00:54:30;;;;;;;;;;;;;;;18.42;56.24;95618.84;1039250;28;1316;-56
2021/10/29 00:55:01;;;;;;;;;;;;;;;18.41;56.47;95616.47;1036250;28;1125;-55
2021/10/29 00:55:31;;;;;;;;;;;;;;;18.42;56.40;95610.19;1039307;28;1920;-55
2021/10/29 00:56:02;;;;;;;;;;;;;;;18.40;56.47;95605.19;1043085;28;1053;-55
2021/10/29 00:56:32;;;;;;;;;;;;;;;18.40;56.43;95615.69;1045102;28;1186;-56
2021/10/29 00:57:03;;;;;;;;;;;;;;;18.41;56.47;95616.47;1049331;28;1134;-52
2021/10/29 00:57:34;;;;;;;;;;;;;;;18.40;56.81;95612.28;1048946;28;1216;-57
2021/10/29 00:58:04;;;;;;;;;;;;;;;18.41;56.57;95617.28;1048585;28;1591;-54
2021/10/29 00:58:35;;;;;;;;;;;;;;;18.41;56.51;95611.22;1047834;28;1920;-54
2021/10/29 00:59:06;;;;;;;;;;;;;;;18.40;56.46;95612.28;1049242;28;1079;-57
2021/10/29 00:59:36;;;;;;;;;;;;;;;18.40;56.54;95612.28;1049747;28;1030;-54
2021/10/29 01:00:08;;;;;;;;;;;;;;;18.40;56.38;95615.69;1049289;28;1910;-57
2021/10/29 01:00:38;;;;;;;;;;;;;;;18.39;56.24;95603.63;1049349;28;1166;-56
2021/10/29 01:01:08;;;;;;;;;;;;;;;18.40;56.65;95615.69;1049375;28;1013;-54
2021/10/29 01:01:39;;;;;;;;;;;;;;;18.40;56.54;95613.06;1049475;28;1193;-53
2021/10/29 01:02:09;;;;;;;;;;;;;;;18.40;56.45;95610.44;1049294;28;1092;-56
2021/10/29 01:02:40;;;;;;;;;;;;;;;18.40;56.65;95609.66;1048070;28;1850;-56
2021/10/29 01:03:10;;;;;;;;;;;;;;;18.39;56.51;95608.88;1048906;28;1091;-54
2021/10/29 01:03:41;;;;;;;;;;;;;;;18.40;56.10;95605.19;1046340;28;1932;-54
2021/10/29 01:04:11;;;;;;;;;;;;;;;18.40;56.45;95613.06;1048879;28;1099;-57
2021/10/29 01:04:41;;;;;;;;;;;;;;;18.41;56.45;95605.97;1049039;28;1044;-53
2021/10/29 01:05:12;;;;;;;;;;;;;;;18.40;56.41;95610.44;1048698;28;1546;-57
2021/10/29 01:05:43;;;;;;;;;;;;;;;18.40;56.38;95615.69;1049202;28;1028;-56
2021/10/29 01:06:13;;;;;;;;;;;;;;;18.40;55.96;95607.81;1049039;28;1205;-56
2021/10/29 01:06:44;;;;;;;;;;;;;;;18.40;56.27;95607.03;1049218;28;1013;-54
2021/10/29 01:07:14;;;;;;;;;;;;;;;18.40;56.19;95607.03;1046550;28;1324;-56
2021/10/29 01:07:44;;;;;;;;;;;;;;;18.41;56.30;95613.84;1049113;28;1017;-55
2021/10/29 01:08:17;;;;;;;;;;;;;;;18.40;56.34;95604.41;1049446;28;1130;-53
2021/10/29 01:08:57;;;;;;;;;;;;;;;18.39;56.23;95608.09;1047464;28;1868;-53
2021/10/29 01:09:28;;;;;;;;;;;;;;;18.40;56.03;95607.03;1049072;28;1206;-55
2021/10/29 01:10:19;;;;;;;;;;;;;;;18.39;56.22;95602.84;1048277;28;1386;-53
2021/10/29 01:10:50;;;;;;;;;;;;;;;18.38;56.09;95599.41;1049311;28;1127;-53
2021/10/29 01:11:21;;;;;;;;;;;;;;;18.39;56.10;95594.97;1047286;28;1460;-54
2021/10/29 01:11:52;;;;;;;;;;;;;;;18.37;56.31;95597.84;1047222;28;1157;-52
2021/10/29 01:12:22;;;;;;;;;;;;;;;18.38;56.24;95601.28;1049175;28;1118;-54
2021/10/29 01:12:55;;;;;;;;;;;;;;;18.38;56.30;95588.91;1048571;28;1490;-54
2021/10/29 01:13:48;;;;;;;;;;;;;;;18.37;56.18;95597.84;1043891;28;1924;-53
2021/10/29 01:14:38;;;;;;;;;;;;;;;18.37;55.79;95591.81;1048583;28;981;-56
2021/10/29 01:15:09;;;;;;;;;;;;;;;18.36;55.65;95591.00;1048782;28;1607;-54
2021/10/29 01:15:39;;;;;;;;;;;;;;;18.37;55.69;95594.44;1049046;28;1206;-53
2021/10/29 01:16:11;;;;;;;;;;;;;;;18.36;56.06;95591.00;1049133;28;892;-52
2021/10/29 01:16:41;;;;;;;;;;;;;;;18.37;55.72;95597.06;1049102;28;1063;-54
2021/10/29 01:17:11;;;;;;;;;;;;;;;18.36;56.02;95587.63;1048862;28;1576;-52
2021/10/29 01:18:02;;;;;;;;;;;;;;;18.37;55.48;95597.06;1047986;28;1048;-54
2021/10/29 01:18:52;;;;;;;;;;;;;;;18.36;55.81;95596.25;1046290;28;1915;-55
2021/10/29 01:19:42;;;;;;;;;;;;;;;18.36;55.84;95598.13;1044920;28;1822;-55
2021/10/29 01:20:22;;;;;;;;;;;;;;;18.36;55.91;95595.50;1046896;28;1977;-53
2021/10/29 01:21:12;;;;;;;;;;;;;;;18.35;55.84;95592.09;1043484;28;1091;-50
2021/10/29 01:21:55;;;;;;;;;;;;;;;18.35;55.78;95592.09;1046811;28;926;-53
2021/10/29 01:22:25;;;;;;;;;;;;;;;18.35;55.88;95588.66;1049188;28;1138;-56
2021/10/29 01:22:56;;;;;;;;;;;;;;;18.35;55.61;95591.28;1048128;28;1236;-56
2021/10/29 01:23:27;;;;;;;;;;;;;;;18.35;55.87;95586.84;1049328;28;1154;-53
2021/10/29 01:23:57;;;;;;;;;;;;;;;18.35;55.57;95586.84;1049190;28;1029;-56
2021/10/29 01:24:28;;;;;;;;;;;;;;;18.34;55.02;95593.13;1046799;28;1946;-54
2021/10/29 01:25:19;;;;;;;;;;;;;;;18.34;55.67;95590.50;1048972;28;1183;-54
2021/10/29 01:26:12;;;;;;;;;;;;;;;18.34;55.49;95584.47;1047570;28;1830;-54
2021/10/29 01:26:43;;;;;;;;;;;;;;;18.34;55.51;95580.00;1049016;28;1126;-55
2021/10/29 01:27:14;;;;;;;;;;;;;;;18.34;55.62;95584.47;1048951;28;1213;-52
2021/10/29 01:27:45;;;;;;;;;;;;;;;18.34;55.28;95587.09;1046561;28;1725;-55
2021/10/29 01:28:16;;;;;;;;;;;;;;;18.34;55.72;95581.84;1044624;28;1585;-54
2021/10/29 01:28:46;;;;;;;;;;;;;;;18.33;55.68;95573.19;1044872;28;1108;-54
2021/10/29 01:29:16;;;;;;;;;;;;;;;18.34;55.52;95581.84;1044924;28;1174;-53
2021/10/29 01:29:47;;;;;;;;;;;;;;;18.33;55.49;95575.81;1043694;28;1914;-53
2021/10/29 01:30:17;;;;;;;;;;;;;;;18.34;55.63;95572.13;1049229;28;1063;-54
2021/10/29 01:30:48;;;;;;;;;;;;;;;18.33;55.60;95575.81;1049012;28;1091;-52
2021/10/29 01:31:18;;;;;;;;;;;;;;;18.34;55.71;95576.59;1048868;28;1094;-55
2021/10/29 01:31:49;;;;;;;;;;;;;;;18.32;55.48;95576.84;1048747;28;1307;-55
2021/10/29 01:32:20;;;;;;;;;;;;;;;18.33;55.50;95572.41;1048565;28;1604;-54
2021/10/29 01:32:50;;;;;;;;;;;;;;;18.33;55.72;95573.19;1043553;28;1123;-55
2021/10/29 01:33:20;;;;;;;;;;;;;;;18.33;55.54;95573.19;1044866;28;1048;-56
2021/10/29 01:33:51;;;;;;;;;;;;;;;18.34;55.59;95571.38;1043042;28;2054;-56
2021/10/29 01:34:21;;;;;;;;;;;;;;;18.33;55.53;95569.78;1043461;28;2032;-56
2021/10/29 01:34:51;;;;;;;;;;;;;;;18.34;55.39;95572.13;1046596;28;1718;-55
2021/10/29 01:35:22;;;;;;;;;;;;;;;18.34;55.18;95568.75;1049348;28;1158;-55
2021/10/29 01:35:52;;;;;;;;;;;;;;;18.32;55.50;95561.09;1049378;28;1012;-56
2021/10/29 01:36:23;;;;;;;;;;;;;;;18.33;55.36;95572.41;1047211;28;1985;-55
2021/10/29 01:36:53;;;;;;;;;;;;;;;18.33;55.72;95564.53;1048236;28;1860;-55
2021/10/29 01:37:23;;;;;;;;;;;;;;;18.33;55.41;95572.41;1048915;28;1346;-52
2021/10/29 01:37:54;;;;;;;;;;;;;;;18.33;55.38;95572.41;1048655;28;1055;-56
2021/10/29 01:38:30;;;;;;;;;;;;;;;18.33;55.45;95572.41;1046040;28;1863;-54
2021/10/29 01:39:00;;;;;;;;;;;;;;;18.34;55.05;95568.75;1047731;28;1033;-54
2021/10/29 01:39:31;;;;;;;;;;;;;;;18.32;55.29;95563.72;1048019;28;1911;-53
2021/10/29 01:40:01;;;;;;;;;;;;;;;18.34;55.59;95566.13;1048883;28;1898;-52
2021/10/29 01:40:31;;;;;;;;;;;;;;;18.34;55.45;95566.13;1049167;28;1278;-56
2021/10/29 01:41:02;;;;;;;;;;;;;;;18.33;55.38;95562.69;1048523;28;1518;-51
2021/10/29 01:41:32;;;;;;;;;;;;;;;18.33;55.60;95565.31;1047735;28;2040;-56
2021/10/29 01:42:03;;;;;;;;;;;;;;;18.34;55.18;95563.50;1048811;28;1867;-56
2021/10/29 01:42:34;;;;;;;;;;;;;;;18.33;55.27;95562.69;1048767;28;1267;-56
2021/10/29 01:43:05;;;;;;;;;;;;;;;18.33;55.53;95564.53;1050856;28;1075;-55
2021/10/29 01:43:39;;;;;;;;;;;;;;;18.34;55.60;95563.50;1049055;28;773;-53
2021/10/29 01:44:10;;;;;;;;;;;;;;;18.34;55.20;95563.50;1047812;28;1187;-54
2021/10/29 01:44:41;;;;;;;;;;;;;;;18.33;55.00;95561.91;1045451;28;1924;-56
2021/10/29 01:45:11;;;;;;;;;;;;;;;18.33;55.40;95559.28;1049021;28;1307;-53
2021/10/29 01:45:42;;;;;;;;;;;;;;;18.32;55.66;95555.84;1049032;28;1047;-56
2021/10/29 01:46:12;;;;;;;;;;;;;;;18.33;55.37;95556.66;1048855;28;1489;-52
2021/10/29 01:46:42;;;;;;;;;;;;;;;18.33;55.17;95557.44;1044638;28;1363;-52
2021/10/29 01:47:13;;;;;;;;;;;;;;;18.33;55.83;95556.66;1044851;28;1145;-53
2021/10/29 01:47:44;;;;;;;;;;;;;;;18.32;55.54;95560.34;1040294;28;1009;-53
2021/10/29 01:48:15;;;;;;;;;;;;;;;18.33;55.60;95559.28;1044955;28;1591;-53
2021/10/29 01:48:51;;;;;;;;;;;;;;;18.33;55.60;95554.03;1048917;28;1095;-55
2021/10/29 01:49:21;;;;;;;;;;;;;;;18.32;55.47;95555.09;1046956;28;1659;-57
2021/10/29 01:49:51;;;;;;;;;;;;;;;18.32;55.37;95557.72;1048782;28;1889;-55
2021/10/29 01:50:22;;;;;;;;;;;;;;;18.32;55.23;95550.59;1053164;28;1855;-54
2021/10/29 01:50:52;;;;;;;;;;;;;;;18.32;55.23;95555.09;1052551;28;1078;-53
2021/10/29 01:51:23;;;;;;;;;;;;;;;18.32;55.30;95555.09;1049161;28;1311;-55
2021/10/29 01:51:54;;;;;;;;;;;;;;;18.32;55.04;95552.47;1049418;28;1904;-56
2021/10/29 01:52:25;;;;;;;;;;;;;;;18.31;55.12;95549.06;1050195;28;1133;-53
2021/10/29 01:52:55;;;;;;;;;;;;;;;18.32;55.22;95547.22;1052069;28;1118;-56
2021/10/29 01:53:27;;;;;;;;;;;;;;;18.31;54.80;95558.75;1048890;28;1656;-55
2021/10/29 01:53:58;;;;;;;;;;;;;;;18.31;55.17;95543.00;1047319;28;1065;-56
2021/10/29 01:54:29;;;;;;;;;;;;;;;18.31;55.16;95549.06;1047562;28;1859;-55
2021/10/29 01:54:59;;;;;;;;;;;;;;;18.31;55.19;95554.31;1048729;28;1038;-56
2021/10/29 01:55:29;;;;;;;;;;;;;;;18.31;55.28;95549.06;1048997;28;1161;-55
2021/10/29 01:56:00;;;;;;;;;;;;;;;18.31;55.22;95549.06;1048901;28;1119;-55
2021/10/29 01:56:30;;;;;;;;;;;;;;;18.31;55.16;95548.25;1048746;28;1204;-57
2021/10/29 01:57:01;;;;;;;;;;;;;;;18.30;54.78;95547.47;1046283;28;1721;-50
2021/10/29 01:57:31;;;;;;;;;;;;;;;18.31;55.12;95548.25;1049078;28;1130;-52
2021/10/29 01:58:01;;;;;;;;;;;;;;;18.31;55.09;95543.00;1049047;28;1116;-54
2021/10/29 01:58:32;;;;;;;;;;;;;;;18.30;55.24;95542.22;1049104;28;1154;-54
2021/10/29 01:59:03;;;;;;;;;;;;;;;18.30;55.13;95549.31;1048665;28;1089;-54
2021/10/29 01:59:33;;;;;;;;;;;;;;;18.30;55.07;95547.47;1047770;28;1951;-57
2021/10/29 02:00:05;;;;;;;;;;;;;;;18.31;55.09;95543.81;1049104;28;1914;-55
2021/10/29 02:00:35;;;;;;;;;;;;;;;18.31;55.27;95545.63;1049266;28;959;-50
2021/10/29 02:01:05;;;;;;;;;;;;;;;18.31;55.11;95540.38;1047757;28;1907;-56
2021/10/29 02:01:36;;;;;;;;;;;;;;;18.30;55.04;95542.22;1049294;28;1276;-56
2021/10/29 02:02:06;;;;;;;;;;;;;;;18.30;55.09;95541.44;1049021;28;1021;-57
2021/10/29 02:02:37;;;;;;;;;;;;;;;18.30;55.02;95544.06;1048618;28;1146;-57
2021/10/29 02:03:08;;;;;;;;;;;;;;;18.29;55.04;95538.03;1048476;28;1161;-57
2021/10/29 02:03:38;;;;;;;;;;;;;;;18.30;55.08;95541.44;1047470;28;2279;-56
2021/10/29 02:04:08;;;;;;;;;;;;;;;18.30;55.27;95536.22;1048361;28;1319;-57
2021/10/29 02:04:39;;;;;;;;;;;;;;;18.31;55.22;95537.75;1045316;28;1934;-56
2021/10/29 02:05:09;;;;;;;;;;;;;;;18.30;54.89;95539.59;1048771;28;866;-58
2021/10/29 02:05:42;;;;;;;;;;;;;;;18.30;54.63;95534.34;1049221;28;1064;-57
2021/10/29 02:06:12;;;;;;;;;;;;;;;18.30;54.91;95536.22;1049020;28;1102;-55
2021/10/29 02:06:42;;;;;;;;;;;;;;;18.29;54.83;95535.41;1049167;28;1095;-55
2021/10/29 02:07:13;;;;;;;;;;;;;;;18.30;54.73;95530.97;1048631;28;1792;-56
2021/10/29 02:07:43;;;;;;;;;;;;;;;18.30;54.86;95536.22;1048416;28;1052;-54
2021/10/29 02:08:14;;;;;;;;;;;;;;;18.30;54.90;95536.22;1049029;28;1209;-54
2021/10/29 02:08:45;;;;;;;;;;;;;;;18.29;54.63;95535.41;1048816;28;1083;-55
2021/10/29 02:09:16;;;;;;;;;;;;;;;18.29;54.67;95529.38;1049367;28;1023;-57
2021/10/29 02:09:46;;;;;;;;;;;;;;;18.29;54.68;95537.25;1047571;28;1926;-53
2021/10/29 02:10:17;;;;;;;;;;;;;;;18.28;54.94;95533.81;1049222;28;1150;-56
2021/10/29 02:10:47;;;;;;;;;;;;;;;18.29;54.72;95542.50;1048785;28;1139;-52
2021/10/29 02:11:18;;;;;;;;;;;;;;;18.28;54.87;95536.44;1048820;28;1185;-55
2021/10/29 02:11:48;;;;;;;;;;;;;;;18.28;54.73;95533.81;1048609;28;1224;-53
2021/10/29 02:12:18;;;;;;;;;;;;;;;18.29;54.54;95534.63;1047984;28;1433;-53
2021/10/29 02:12:49;;;;;;;;;;;;;;;18.30;54.67;95536.22;1048881;28;1012;-57
2021/10/29 02:13:19;;;;;;;;;;;;;;;18.28;54.69;95531.19;1049283;28;1138;-56
2021/10/29 02:13:49;;;;;;;;;;;;;;;18.29;54.88;95532.00;1048200;28;1918;-57
2021/10/29 02:14:21;;;;;;;;;;;;;;;18.28;54.76;95533.81;1047896;28;1059;-58
2021/10/29 02:14:51;;;;;;;;;;;;;;;18.28;54.70;95533.06;1047316;28;1912;-56
2021/10/29 02:15:22;;;;;;;;;;;;;;;18.29;54.94;95534.63;1048708;28;1313;-55
2021/10/29 02:15:52;;;;;;;;;;;;;;;18.29;54.76;95526.75;1048897;28;1036;-52
2021/10/29 02:16:23;;;;;;;;;;;;;;;18.29;54.69;95535.41;1051204;28;1162;-55
2021/10/29 02:16:53;;;;;;;;;;;;;;;18.29;54.82;95524.13;1047871;28;1091;-55
2021/10/29 02:17:23;;;;;;;;;;;;;;;18.28;55.01;95527.81;1047347;28;1191;-56
2021/10/29 02:17:54;;;;;;;;;;;;;;;18.28;54.87;95523.31;1047216;28;1041;-55
2021/10/29 02:18:24;;;;;;;;;;;;;;;18.28;54.79;95522.56;1048854;28;1122;-57
2021/10/29 02:18:54;;;;;;;;;;;;;;;18.29;54.80;95513.63;1047708;28;1884;-53
2021/10/29 02:19:25;;;;;;;;;;;;;;;18.28;54.76;95523.31;1048416;28;1813;-52
2021/10/29 02:19:55;;;;;;;;;;;;;;;18.29;54.59;95521.50;1047501;28;2049;-54
2021/10/29 02:20:25;;;;;;;;;;;;;;;18.30;54.85;95520.47;1048153;28;1726;-58
2021/10/29 02:20:56;;;;;;;;;;;;;;;18.28;54.84;95522.56;1049313;28;1021;-55
2021/10/29 02:21:30;;;;;;;;;;;;;;;18.30;54.85;95520.47;1049007;28;1363;-54
2021/10/29 02:22:00;;;;;;;;;;;;;;;18.29;54.85;95513.63;1048806;28;981;-56
2021/10/29 02:22:31;;;;;;;;;;;;;;;18.29;54.78;95514.41;1048988;28;1180;-55
2021/10/29 02:23:02;;;;;;;;;;;;;;;18.29;54.74;95524.13;1048248;28;1437;-54
2021/10/29 02:23:32;;;;;;;;;;;;;;;18.29;54.68;95518.88;1049155;28;1233;-56
2021/10/29 02:24:03;;;;;;;;;;;;;;;18.28;54.70;95514.69;1049017;28;1064;-53
2021/10/29 02:24:34;;;;;;;;;;;;;;;18.28;54.57;95522.56;1047998;28;1930;-57
2021/10/29 02:25:05;;;;;;;;;;;;;;;18.28;54.68;95514.69;1048576;28;1571;-56
2021/10/29 02:25:35;;;;;;;;;;;;;;;18.29;54.74;95524.13;1049101;28;1241;-57
2021/10/29 02:26:05;;;;;;;;;;;;;;;18.30;54.51;95523.09;1049079;28;1092;-56
2021/10/29 02:26:36;;;;;;;;;;;;;;;18.30;54.66;95515.22;1049180;28;1039;-56
2021/10/29 02:27:06;;;;;;;;;;;;;;;18.29;54.31;95513.63;1049131;28;1076;-55
2021/10/29 02:27:37;;;;;;;;;;;;;;;18.28;54.65;95519.94;1048049;28;1859;-57
2021/10/29 02:28:07;;;;;;;;;;;;;;;18.29;54.47;95513.63;1048877;28;1056;-54
2021/10/29 02:28:38;;;;;;;;;;;;;;;18.28;54.20;95512.06;1049107;28;1079;-57
2021/10/29 02:29:08;;;;;;;;;;;;;;;18.28;54.22;95512.06;1049079;28;1092;-57
2021/10/29 02:29:38;;;;;;;;;;;;;;;18.28;54.42;95512.06;1046688;28;1904;-55
2021/10/29 02:30:09;;;;;;;;;;;;;;;18.28;54.45;95512.06;1048148;28;1198;-57
2021/10/29 02:30:39;;;;;;;;;;;;;;;18.26;54.41;95512.31;1049063;28;729;-54
2021/10/29 02:31:10;;;;;;;;;;;;;;;18.27;54.37;95521.78;1049017;28;1204;-55
2021/10/29 02:31:40;;;;;;;;;;;;;;;18.27;54.43;95510.47;1048947;28;1273;-57
2021/10/29 02:32:11;;;;;;;;;;;;;;;18.27;54.11;95513.09;1048780;28;1600;-54
2021/10/29 02:32:41;;;;;;;;;;;;;;;18.26;54.40;95509.69;1047921;28;1087;-54
2021/10/29 02:33:12;;;;;;;;;;;;;;;18.26;54.28;95514.94;1042781;28;1190;-55
2021/10/29 02:33:43;;;;;;;;;;;;;;;18.26;54.42;95520.19;1044113;28;1597;-56
2021/10/29 02:34:13;;;;;;;;;;;;;;;18.26;54.39;95514.94;1044600;28;1118;-57
2021/10/29 02:34:43;;;;;;;;;;;;;;;18.26;54.46;95524.66;1043216;28;2048;-55
2021/10/29 02:35:14;;;;;;;;;;;;;;;18.27;54.35;95520.97;1048862;28;1246;-53
2021/10/29 02:35:44;;;;;;;;;;;;;;;18.26;54.24;95520.19;1048842;28;981;-56
2021/10/29 02:36:14;;;;;;;;;;;;;;;18.27;54.23;95515.72;1040658;28;1831;-58
2021/10/29 02:36:45;;;;;;;;;;;;;;;18.28;54.18;95527.81;1043097;28;2377;-54
2021/10/29 02:37:15;;;;;;;;;;;;;;;18.25;54.29;95523.88;1044703;28;1014;-58
2021/10/29 02:37:45;;;;;;;;;;;;;;;18.27;54.15;95526.22;1044514;28;1028;-57
2021/10/29 02:38:16;;;;;;;;;;;;;;;18.27;54.19;95523.59;1049059;28;1008;-55
2021/10/29 02:38:46;;;;;;;;;;;;;;;18.26;54.11;95525.44;1048928;28;1185;-56
2021/10/29 02:39:16;;;;;;;;;;;;;;;18.26;54.16;95519.41;1049127;28;1083;-58
2021/10/29 02:39:47;;;;;;;;;;;;;;;18.25;54.24;95518.63;1049045;28;1141;-57
2021/10/29 02:40:17;;;;;;;;;;;;;;;18.26;54.30;95525.44;1049134;28;1898;-55
2021/10/29 02:40:48;;;;;;;;;;;;;;;18.25;54.35;95521.25;1048781;28;1105;-56
2021/10/29 02:41:18;;;;;;;;;;;;;;;18.27;54.12;95526.22;1048327;28;1922;-53
2021/10/29 02:41:49;;;;;;;;;;;;;;;18.26;54.34;95525.44;1046709;28;1586;-55
2021/10/29 02:42:20;;;;;;;;;;;;;;;18.27;54.18;95523.59;1048816;28;1240;-53
2021/10/29 02:42:50;;;;;;;;;;;;;;;18.26;54.48;95525.44;1052225;28;1638;-52
2021/10/29 02:43:21;;;;;;;;;;;;;;;18.27;54.38;95523.59;1051896;28;1169;-54
2021/10/29 02:43:51;;;;;;;;;;;;;;;18.27;54.05;95520.97;1052152;28;1408;-57
2021/10/29 02:44:22;;;;;;;;;;;;;;;18.25;54.04;95518.63;1050539;28;1051;-52
2021/10/29 02:44:52;;;;;;;;;;;;;;;18.25;54.13;95523.88;1048603;28;1155;-52
2021/10/29 02:45:23;;;;;;;;;;;;;;;18.26;53.90;95519.41;1049190;28;1138;-57